»·PEaware :: SWA642 KLAS-KSAN

SWA642 :: KLAS-KSAN

FLIGHT INFORMATION

Flight Status: Arrived
Operator:
Southwest Airlines
More flights by this operator :: More flights under this callsign
Pilot: Anonymous 16342 (16342)
Aircraft: BOEING 737-700
(B737)
More flights by this aircraft type
Origin: KLAS McCarran Intl
United States
Destination: KSAN San Diego Intl-Lindbergh
United States
More flights between these airports :: More routes between these airports
Route: BOACH8 LVELL LUCKI1
File this flight plan on PilotEdge
Remarks:
Altitude:
(Current/Filed)
28,000ft
Speed:
(Current/Filed)
445kts
Departed: 25-Aug-18 07:20 AM
Arrived: 25-Aug-18 08:07 AM
Distance/Time
Traveled:
225nm/0:47
Distance/Time
To Go:
Arrived

Flight Plot

Page will automatically refresh every two minutes.

Flight plan parsing failed; only flown route is shown


Map Options




Map Legend


Flown Route
Filed Route
Departure Airport
Arrival Airport
Navaid (VOR, NDB)
Fix

Horizontal Profiles

Position Reports

Time Latitude Longitude Heading Altitude Ground
Speed
25-Aug-18 07:02 36.082696 -115.148629 65 2123ft 0kts
25-Aug-18 07:03 36.082696 -115.148629 65 2123ft 0kts
25-Aug-18 07:04 36.082696 -115.148629 65 2123ft 0kts
25-Aug-18 07:05 36.082696 -115.148629 65 2123ft 0kts
25-Aug-18 07:06 36.082696 -115.148629 65 2123ft 0kts
25-Aug-18 07:07 36.082696 -115.148629 65 2123ft 0kts
25-Aug-18 07:08 36.082506 -115.149278 87 2123ft 2kts
25-Aug-18 07:09 36.082710 -115.149626 155 2123ft 0kts
25-Aug-18 07:10 36.082710 -115.149626 155 2123ft 0kts
25-Aug-18 07:11 36.082710 -115.149626 155 2123ft 0kts
25-Aug-18 07:12 36.082710 -115.149626 155 2123ft 0kts
25-Aug-18 07:13 36.082110 -115.149285 155 2122ft 11kts
25-Aug-18 07:14 36.078537 -115.147451 137 2122ft 12kts
25-Aug-18 07:15 36.078220 -115.142888 91 2122ft 16kts
25-Aug-18 07:16 36.078230 -115.137895 90 2123ft 19kts
25-Aug-18 07:17 36.078226 -115.131862 90 2122ft 8kts
25-Aug-18 07:18 36.078231 -115.125035 89 2123ft 15kts
25-Aug-18 07:19 36.077126 -115.121331 171 2122ft 0kts
25-Aug-18 07:20 36.077124 -115.121331 171 2122ft 0kts
25-Aug-18 07:21 36.076304 -115.134891 268 2127ft 156kts
25-Aug-18 07:22 36.077367 -115.200511 267 4287ft 206kts
25-Aug-18 07:23 36.058123 -115.262652 206 6970ft 214kts
25-Aug-18 07:24 35.991433 -115.292365 200 7068ft 278kts
25-Aug-18 07:25 35.916616 -115.308405 186 9216ft 276kts
25-Aug-18 07:26 35.837424 -115.313652 176 12430ft 302kts
25-Aug-18 07:27 35.753005 -115.303311 175 15349ft 333kts
25-Aug-18 07:28 35.654570 -115.294758 182 17479ft 377kts
25-Aug-18 07:29 35.546242 -115.299860 182 19000ft 416kts
25-Aug-18 07:30 35.429152 -115.304531 182 20228ft 434kts
25-Aug-18 07:31 35.311042 -115.309183 182 22867ft 427kts
25-Aug-18 07:32 35.194697 -115.313755 183 25647ft 417kts
25-Aug-18 07:33 35.081699 -115.318207 183 27915ft 411kts
25-Aug-18 07:34 34.963845 -115.322830 183 27974ft 447kts
25-Aug-18 07:35 34.840520 -115.327637 183 27977ft 454kts
25-Aug-18 07:36 34.719101 -115.357787 199 27987ft 451kts
25-Aug-18 07:37 34.602380 -115.409038 200 28002ft 451kts
25-Aug-18 07:38 34.487165 -115.459425 200 28008ft 451kts
25-Aug-18 07:39 34.380437 -115.505827 200 28017ft 451kts
25-Aug-18 07:40 34.269596 -115.570763 211 28022ft 451kts
25-Aug-18 07:41 34.160804 -115.638749 201 28004ft 449kts
25-Aug-18 07:42 34.045777 -115.692627 201 27994ft 449kts
25-Aug-18 07:43 33.931385 -115.746387 201 27980ft 450kts
25-Aug-18 07:44 33.816986 -115.802303 202 27952ft 450kts
25-Aug-18 07:45 33.702581 -115.857069 201 27925ft 450kts
25-Aug-18 07:46 33.589652 -115.909696 201 27875ft 430kts
25-Aug-18 07:47 33.496210 -115.982279 229 25960ft 403kts
25-Aug-18 07:48 33.434126 -116.084366 233 24660ft 374kts
25-Aug-18 07:49 33.376078 -116.183869 233 22727ft 367kts
25-Aug-18 07:50 33.307372 -116.266846 208 20923ft 356kts
25-Aug-18 07:51 33.221303 -116.318308 205 19129ft 347kts
25-Aug-18 07:52 33.138589 -116.366625 205 17169ft 337kts
25-Aug-18 07:53 33.057787 -116.413738 205 14844ft 328kts
25-Aug-18 07:54 32.982197 -116.466523 219 13053ft 315kts
25-Aug-18 07:55 32.918509 -116.531900 219 11736ft 308kts
25-Aug-18 07:56 32.854074 -116.596955 219 10310ft 296kts
25-Aug-18 07:57 32.794148 -116.657285 220 8914ft 281kts
25-Aug-18 07:58 32.749066 -116.729229 241 7540ft 272kts
25-Aug-18 07:59 32.716818 -116.798427 240 6370ft 263kts
25-Aug-18 08:00 32.692281 -116.866291 250 5772ft 197kts
25-Aug-18 08:01 32.674761 -116.925504 252 4722ft 181kts
25-Aug-18 08:02 32.682302 -116.978705 285 3613ft 165kts
25-Aug-18 08:03 32.694355 -117.028050 286 2892ft 150kts
25-Aug-18 08:04 32.705235 -117.072882 285 2238ft 140kts
25-Aug-18 08:05 32.716082 -117.117592 284 1310ft 144kts
25-Aug-18 08:06 32.726989 -117.162472 284 436ft 143kts
25-Aug-18 08:07 32.735878 -117.199175 286 23ft 45kts
25-Aug-18 08:08 32.735025 -117.200274 105 23ft 18kts
25-Aug-18 08:09 32.733868 -117.197052 191 23ft 4kts
25-Aug-18 08:10 32.733185 -117.196857 143 23ft 0kts
25-Aug-18 08:11 32.733150 -117.196825 143 23ft 0kts
25-Aug-18 08:12 32.733150 -117.196825 143 23ft 0kts

Navigation Log

Ident Type
Flight plan parsing failed, navigation log unavailable